createdAt,value
2018-04-28T00:01:00.083Z,12.32
2018-04-28T00:05:55.973Z,12.36
2018-04-28T00:10:51.536Z,12.42
2018-04-28T00:15:47.232Z,12.28
2018-04-28T00:20:44.067Z,12.21
2018-04-28T00:25:39.519Z,12.24
2018-04-28T00:30:35.109Z,12.27
2018-04-28T00:35:34.774Z,12.27
2018-04-28T00:40:29.871Z,12.31
2018-04-28T00:45:26.643Z,12.21
2018-04-28T00:50:26.188Z,12.18
2018-04-28T00:55:21.331Z,12.22
2018-04-28T01:00:18.288Z,12.17
2018-04-28T01:05:13.679Z,12.15
2018-04-28T01:10:09.574Z,12.15
2018-04-28T01:15:05.465Z,12.17
2018-04-28T01:20:01.052Z,12.13
2018-04-28T01:25:01.226Z,12.27
2018-04-28T01:29:56.351Z,12.37
2018-04-28T01:34:52.750Z,12.60
2018-04-28T01:39:49.306Z,12.82
2018-04-28T01:44:45.133Z,12.79
2018-04-28T01:49:45.228Z,12.83
2018-04-28T01:54:44.377Z,13.03
2018-04-28T01:59:40.802Z,13.09
2018-04-28T02:04:40.221Z,13.04
2018-04-28T02:09:35.618Z,13.00
2018-04-28T02:14:35.173Z,12.86
2018-04-28T02:19:34.384Z,12.87
2018-04-28T02:24:33.202Z,12.80
2018-04-28T02:29:29.039Z,12.70
2018-04-28T02:34:25.179Z,12.72
2018-04-28T02:39:20.952Z,12.73
2018-04-28T02:44:16.854Z,12.73
2018-04-28T02:49:12.596Z,12.80
2018-04-28T02:54:12.315Z,12.75
2018-04-28T02:59:07.299Z,12.55
2018-04-28T03:04:02.952Z,12.57
2018-04-28T03:08:59.536Z,12.60
2018-04-28T03:13:55.704Z,12.53
2018-04-28T03:18:52.205Z,12.42
2018-04-28T03:23:51.622Z,12.60
2018-04-28T03:28:50.347Z,12.55
2018-04-28T03:33:45.444Z,12.61
2018-04-28T03:38:41.072Z,12.61
2018-04-28T03:43:36.900Z,12.58
2018-04-28T03:48:32.399Z,12.58
2018-04-28T03:53:28.203Z,12.55
2018-04-28T03:58:24.191Z,12.54
2018-04-28T04:03:20.211Z,12.64
2018-04-28T04:08:16.233Z,12.72
2018-04-28T04:13:15.977Z,12.72
2018-04-28T04:18:10.979Z,12.87
2018-04-28T04:23:07.042Z,12.78
2018-04-28T04:28:02.797Z,12.83
2018-04-28T04:32:58.758Z,12.91
2018-04-28T04:37:58.783Z,12.90
2018-04-28T04:42:57.487Z,12.90
2018-04-28T04:47:52.444Z,13.00
2018-04-28T04:52:49.252Z,13.15
2018-04-28T04:57:44.935Z,13.19
2018-04-28T05:02:41.863Z,13.15
2018-04-28T05:07:37.383Z,13.22
2018-04-28T05:12:33.411Z,13.37
2018-04-28T05:17:30.346Z,13.42
2018-04-28T05:22:25.865Z,13.41
2018-04-28T05:27:21.737Z,13.54
2018-04-28T05:32:21.793Z,13.79
2018-04-28T05:37:17.921Z,13.86
2018-04-28T05:42:13.552Z,14.07
2018-04-28T05:47:11.146Z,14.17
2018-04-28T05:52:07.931Z,14.25
2018-04-28T05:57:07.683Z,14.43
2018-04-28T06:02:03.190Z,14.48
2018-04-28T06:07:03.906Z,14.66
2018-04-28T06:11:59.698Z,14.65
2018-04-28T06:16:56.086Z,14.81
2018-04-28T06:21:57.271Z,15.00
2018-04-28T06:26:53.362Z,15.14
2018-04-28T06:31:49.206Z,15.06
2018-04-28T06:36:45.011Z,15.06
2018-04-28T06:41:45.750Z,15.03
2018-04-28T06:46:41.034Z,14.84
2018-04-28T06:51:37.324Z,15.09
2018-04-28T06:56:34.156Z,15.31
2018-04-28T07:01:34.582Z,15.31
2018-04-28T07:06:33.649Z,15.44
2018-04-28T07:11:28.984Z,15.70
2018-04-28T07:16:29.728Z,15.75
2018-04-28T07:21:24.646Z,15.80
2018-04-28T07:26:20.584Z,15.90
2018-04-28T07:31:20.339Z,15.70
2018-04-28T07:36:15.520Z,16.39
2018-04-28T07:41:12.760Z,16.64
2018-04-28T07:46:09.828Z,17.11
2018-04-28T07:51:05.873Z,17.09
2018-04-28T07:56:01.666Z,17.06
2018-04-28T08:00:58.010Z,17.57
2018-04-28T08:05:58.616Z,17.48
2018-04-28T08:10:53.574Z,17.24
2018-04-28T08:15:53.876Z,17.05
2018-04-28T08:20:52.180Z,16.68
2018-04-28T08:25:50.416Z,16.46
2018-04-28T08:30:48.940Z,16.28
2018-04-28T08:35:43.483Z,16.17
2018-04-28T08:40:39.442Z,15.97
2018-04-28T08:45:35.402Z,16.08
2018-04-28T08:50:31.576Z,16.10
2018-04-28T08:55:27.900Z,16.46
2018-04-28T09:00:29.616Z,16.75
2018-04-28T09:05:24.924Z,16.87
2018-04-28T09:10:22.271Z,17.16
2018-04-28T09:15:22.449Z,17.64
2018-04-28T09:20:21.660Z,17.78
2018-04-28T09:25:20.731Z,17.85
2018-04-28T09:30:16.915Z,18.10
2018-04-28T09:35:18.226Z,18.26
2018-04-28T09:40:13.458Z,18.56
2018-04-28T09:45:14.433Z,18.98
2018-04-28T09:50:09.793Z,19.11
2018-04-28T09:55:05.509Z,18.49
2018-04-28T10:00:01.550Z,17.82
2018-04-28T10:04:56.239Z,17.36
2018-04-28T10:09:55.578Z,17.41
2018-04-28T10:14:52.041Z,17.64
2018-04-28T10:19:47.818Z,17.70
2018-04-28T10:24:47.274Z,17.54
2018-04-28T10:29:47.226Z,17.60
2018-04-28T10:34:46.003Z,17.63
2018-04-28T10:39:41.066Z,17.34
2018-04-28T10:44:40.540Z,17.30
2018-04-28T10:49:35.379Z,17.24
2018-04-28T10:54:32.729Z,17.26
2018-04-28T10:59:28.349Z,17.38
2018-04-28T11:04:24.771Z,17.57
2018-04-28T11:09:25.058Z,17.90
2018-04-28T11:14:25.033Z,18.11
2018-04-28T11:19:20.469Z,17.92
2018-04-28T11:24:15.441Z,17.56
2018-04-28T11:29:10.967Z,17.45
2018-04-28T11:34:10.288Z,17.38
2018-04-28T11:39:05.236Z,17.41
2018-04-28T11:44:02.668Z,17.64
2018-04-28T11:49:02.915Z,17.92
2018-04-28T11:53:59.283Z,17.97
2018-04-28T11:58:59.280Z,18.19
2018-04-28T12:03:53.947Z,17.95
2018-04-28T12:08:49.687Z,17.82
2018-04-28T12:13:45.471Z,17.63
2018-04-28T12:18:45.971Z,17.49
2018-04-28T12:23:40.411Z,17.42
2018-04-28T12:28:39.942Z,17.48
2018-04-28T12:33:40.035Z,17.86
2018-04-28T12:38:36.082Z,18.37
2018-04-28T12:43:33.318Z,18.83
2018-04-28T12:48:29.783Z,18.66
2018-04-28T12:53:26.096Z,18.60
2018-04-28T12:58:22.157Z,18.89
2018-04-28T13:03:19.502Z,19.56
2018-04-28T13:08:18.583Z,19.07
2018-04-28T13:13:18.522Z,18.60
2018-04-28T13:18:16.558Z,18.16
2018-04-28T13:23:10.788Z,17.76
2018-04-28T13:28:06.561Z,17.46
2018-04-28T13:33:02.015Z,17.29
2018-04-28T13:37:57.432Z,17.30
2018-04-28T13:42:58.379Z,17.52
2018-04-28T13:47:53.130Z,17.78
2018-04-28T13:52:49.081Z,17.82
2018-04-28T13:57:48.636Z,17.68
2018-04-28T14:02:44.876Z,17.80
2018-04-28T14:07:45.778Z,17.94
2018-04-28T14:12:41.808Z,18.22
2018-04-28T14:17:37.975Z,18.43
2018-04-28T14:22:37.793Z,18.22
2018-04-28T14:27:37.251Z,18.19
2018-04-28T14:32:33.043Z,18.07
2018-04-28T14:37:28.647Z,18.38
2018-04-28T14:42:26.001Z,18.31
2018-04-28T14:47:25.710Z,18.50
2018-04-28T14:52:22.000Z,18.49
2018-04-28T14:57:17.825Z,18.44
2018-04-28T15:02:14.662Z,18.63
2018-04-28T15:07:10.354Z,18.66
2018-04-28T15:12:10.826Z,18.59
2018-04-28T15:17:05.830Z,18.40
2018-04-28T15:22:02.602Z,18.52
2018-04-28T15:27:03.076Z,18.43
2018-04-28T15:32:01.931Z,18.47
2018-04-28T15:37:00.901Z,18.52
2018-04-28T15:41:59.955Z,18.44
2018-04-28T15:46:58.903Z,18.40
2018-04-28T15:51:54.670Z,18.40
2018-04-28T15:56:50.143Z,18.34
2018-04-28T16:01:49.737Z,18.08
2018-04-28T16:06:44.574Z,17.95
2018-04-28T16:11:44.171Z,17.85
2018-04-28T16:16:39.110Z,17.89
2018-04-28T16:21:35.065Z,17.86
2018-04-28T16:26:34.706Z,17.87
2018-04-28T16:31:30.785Z,17.74
2018-04-28T16:36:27.171Z,17.65
2018-04-28T16:41:26.447Z,17.63
2018-04-28T16:46:21.519Z,17.42
2018-04-28T16:51:22.214Z,17.63
2018-04-28T16:56:17.050Z,17.59
2018-04-28T17:01:13.231Z,17.39
2018-04-28T17:06:09.020Z,17.31
2018-04-28T17:11:04.823Z,17.30
2018-04-28T17:16:00.611Z,17.22
2018-04-28T17:20:57.824Z,17.29
2018-04-28T17:25:53.263Z,17.11
2018-04-28T17:30:49.583Z,17.06
2018-04-28T17:35:45.505Z,16.96
2018-04-28T17:40:41.350Z,16.94
2018-04-28T17:45:37.045Z,16.83
2018-04-28T17:50:33.678Z,16.74
2018-04-28T17:55:33.735Z,16.75
2018-04-28T18:00:33.620Z,16.69
2018-04-28T18:05:32.229Z,16.61
2018-04-28T18:10:32.037Z,16.57
2018-04-28T18:15:28.105Z,16.65
2018-04-28T18:20:24.666Z,16.56
2018-04-28T18:25:20.265Z,16.41
2018-04-28T18:30:19.943Z,16.38
2018-04-28T18:35:15.088Z,16.32
2018-04-28T18:40:15.792Z,16.15
2018-04-28T18:45:14.577Z,16.21
2018-04-28T18:50:13.387Z,16.09
2018-04-28T18:55:12.438Z,16.09
2018-04-28T19:00:08.357Z,16.01
2018-04-28T19:05:07.813Z,15.98
2018-04-28T19:10:08.012Z,15.92
2018-04-28T19:15:04.676Z,15.91
2018-04-28T19:20:00.553Z,15.80
2018-04-28T19:25:00.229Z,15.94
2018-04-28T19:29:59.219Z,15.92
2018-04-28T19:34:59.183Z,15.92
2018-04-28T19:39:57.889Z,15.77
2018-04-28T19:44:53.080Z,15.76
2018-04-28T19:49:48.987Z,15.76
2018-04-28T19:54:48.607Z,15.82
2018-04-28T19:59:44.766Z,15.76
2018-04-28T20:04:41.294Z,15.79
2018-04-28T20:09:40.762Z,15.82
2018-04-28T20:14:39.659Z,15.73
2018-04-28T20:19:34.525Z,15.54
2018-04-28T20:24:30.975Z,15.51
2018-04-28T20:29:27.977Z,15.51
2018-04-28T20:34:27.261Z,15.51
2018-04-28T20:39:26.946Z,15.52
2018-04-28T20:44:25.782Z,15.46
2018-04-28T20:49:20.905Z,15.49
2018-04-28T20:54:16.477Z,15.49
2018-04-28T20:59:16.723Z,15.54
2018-04-28T21:04:11.863Z,15.36
2018-04-28T21:09:07.336Z,15.29
2018-04-28T21:14:02.987Z,15.39
2018-04-28T21:18:58.977Z,15.28
2018-04-28T21:23:55.252Z,15.31
2018-04-28T21:28:52.142Z,15.19
2018-04-28T21:33:48.667Z,15.25
2018-04-28T21:38:45.534Z,15.15
2018-04-28T21:43:45.106Z,15.14
2018-04-28T21:48:41.087Z,15.04
2018-04-28T21:53:36.483Z,15.10
2018-04-28T21:58:36.245Z,15.09
2018-04-28T22:03:36.228Z,15.15
2018-04-28T22:08:32.121Z,15.09
2018-04-28T22:13:28.043Z,15.10
2018-04-28T22:18:23.877Z,15.02
2018-04-28T22:23:23.871Z,15.04
2018-04-28T22:28:18.908Z,14.94
2018-04-28T22:33:14.400Z,14.82
2018-04-28T22:38:15.100Z,14.81
2018-04-28T22:43:13.619Z,14.58
2018-04-28T22:48:08.625Z,14.60
2018-04-28T22:53:05.297Z,14.47
2018-04-28T22:58:04.943Z,14.47
2018-04-28T23:03:03.824Z,14.53
2018-04-28T23:08:02.518Z,14.29
2018-04-28T23:12:58.365Z,14.40
2018-04-28T23:17:55.689Z,14.29
2018-04-28T23:22:50.985Z,14.33
2018-04-28T23:27:47.159Z,14.29
2018-04-28T23:32:42.952Z,14.28
2018-04-28T23:37:42.671Z,14.29
2018-04-28T23:42:38.596Z,14.35
2018-04-28T23:47:39.011Z,14.35
2018-04-28T23:52:38.417Z,14.28
2018-04-28T23:57:33.264Z,14.29
